createdAt,value
2022-12-22T00:00:13.036Z,960.52
2022-12-22T00:01:03.003Z,960.59
2022-12-22T00:01:53.133Z,960.57
2022-12-22T00:02:43.188Z,960.49
2022-12-22T00:03:33.193Z,960.58
2022-12-22T00:04:23.029Z,960.50
2022-12-22T00:05:12.999Z,960.44
2022-12-22T00:06:02.943Z,960.57
2022-12-22T00:06:52.933Z,960.58
2022-12-22T00:07:42.926Z,960.48
2022-12-22T00:08:32.928Z,960.38
2022-12-22T00:09:22.908Z,960.51
2022-12-22T00:10:12.912Z,960.39
2022-12-22T00:11:02.892Z,960.47
2022-12-22T00:11:52.903Z,960.45
2022-12-22T00:12:42.887Z,960.56
2022-12-22T00:13:32.875Z,960.43
2022-12-22T00:14:22.853Z,960.39
2022-12-22T00:15:12.844Z,960.42
2022-12-22T00:16:02.840Z,960.46
2022-12-22T00:16:52.934Z,960.43
2022-12-22T00:17:42.817Z,960.33
2022-12-22T00:18:32.812Z,960.31
2022-12-22T00:19:22.783Z,960.46
2022-12-22T00:20:19.779Z,960.48
2022-12-22T00:21:02.768Z,960.29
2022-12-22T00:21:52.755Z,960.33
2022-12-22T00:22:42.770Z,960.33
2022-12-22T00:23:32.763Z,960.15
2022-12-22T00:24:22.737Z,960.21
2022-12-22T00:25:12.733Z,960.30
2022-12-22T00:26:02.718Z,960.31
2022-12-22T00:26:52.706Z,960.26
2022-12-22T00:27:45.727Z,960.15
2022-12-22T00:28:32.703Z,960.07
2022-12-22T00:29:22.738Z,960.15
2022-12-22T00:30:12.673Z,960.05
2022-12-22T00:31:02.718Z,960.14
2022-12-22T00:31:52.650Z,960.10
2022-12-22T00:32:42.655Z,960.10
2022-12-22T00:33:32.670Z,960.09
2022-12-22T00:34:23.148Z,960.05
2022-12-22T00:35:12.616Z,960.04
2022-12-22T00:36:02.621Z,960.08
2022-12-22T00:36:52.593Z,960.02
2022-12-22T00:37:42.584Z,960.06
2022-12-22T00:38:32.623Z,960.09
2022-12-22T00:39:22.572Z,960.04
2022-12-22T00:40:12.554Z,960.05
2022-12-22T00:41:02.549Z,960.07
2022-12-22T00:41:52.544Z,960.05
2022-12-22T00:42:42.536Z,959.98
2022-12-22T00:43:32.551Z,959.96
2022-12-22T00:44:22.518Z,960.12
2022-12-22T00:45:12.509Z,960.00
2022-12-22T00:46:02.702Z,960.00
2022-12-22T00:46:52.496Z,959.99
2022-12-22T00:47:42.489Z,960.07
2022-12-22T00:48:32.476Z,960.01
2022-12-22T00:49:22.455Z,960.03
2022-12-22T00:50:12.444Z,960.05
2022-12-22T00:51:02.433Z,959.94
2022-12-22T00:51:52.432Z,960.00
2022-12-22T00:52:42.442Z,959.99
2022-12-22T00:53:32.424Z,960.16
2022-12-22T00:54:22.405Z,960.03
2022-12-22T00:55:12.388Z,960.09
2022-12-22T00:56:02.387Z,959.96
2022-12-22T00:56:52.372Z,960.00
2022-12-22T00:57:42.364Z,959.91
2022-12-22T00:58:32.372Z,959.97
2022-12-22T00:59:22.342Z,959.97
2022-12-22T01:00:12.339Z,959.93
2022-12-22T01:01:02.362Z,959.98
2022-12-22T01:01:52.417Z,959.94
2022-12-22T01:02:42.490Z,959.93
2022-12-22T01:03:32.325Z,959.96
2022-12-22T01:04:22.290Z,959.92
2022-12-22T01:05:12.281Z,959.89
2022-12-22T01:06:02.276Z,959.89
2022-12-22T01:06:52.266Z,959.81
2022-12-22T01:07:42.251Z,959.93
2022-12-22T01:08:32.252Z,959.79
2022-12-22T01:09:22.233Z,959.74
2022-12-22T01:10:12.221Z,959.74
2022-12-22T01:11:02.227Z,959.75
2022-12-22T01:11:52.202Z,959.78
2022-12-22T01:12:42.202Z,959.76
2022-12-22T01:13:32.206Z,959.78
2022-12-22T01:14:22.169Z,959.79
2022-12-22T01:15:12.163Z,959.72
2022-12-22T01:16:02.193Z,959.75
2022-12-22T01:16:52.149Z,959.70
2022-12-22T01:17:42.144Z,959.75
2022-12-22T01:18:32.151Z,959.69
2022-12-22T01:19:22.128Z,959.76
2022-12-22T01:20:12.110Z,959.70
2022-12-22T01:21:02.101Z,959.72
2022-12-22T01:21:52.095Z,959.63
2022-12-22T01:22:42.090Z,959.80
2022-12-22T01:23:32.121Z,959.75
2022-12-22T01:24:22.059Z,959.64
2022-12-22T01:25:12.048Z,959.74
2022-12-22T01:26:02.059Z,959.73
2022-12-22T01:26:52.037Z,959.67
2022-12-22T01:27:42.028Z,959.81
2022-12-22T01:28:32.031Z,959.74
2022-12-22T01:29:22.013Z,959.76
2022-12-22T01:30:11.995Z,959.72
2022-12-22T01:31:02.049Z,959.63
2022-12-22T01:31:51.987Z,959.66
2022-12-22T01:32:41.967Z,959.57
2022-12-22T01:33:31.970Z,959.60
2022-12-22T01:34:21.954Z,959.63
2022-12-22T01:35:11.947Z,959.62
2022-12-22T01:36:01.931Z,959.52
2022-12-22T01:36:51.917Z,959.56
2022-12-22T01:37:41.921Z,959.66
2022-12-22T01:38:31.923Z,959.65
2022-12-22T01:39:21.896Z,959.60
2022-12-22T01:40:11.877Z,959.56
2022-12-22T01:41:01.893Z,959.67
2022-12-22T01:41:51.859Z,959.65
2022-12-22T01:42:41.856Z,959.59
2022-12-22T01:43:31.859Z,959.54
2022-12-22T01:44:21.845Z,959.53
2022-12-22T01:45:11.825Z,959.54
2022-12-22T01:46:01.896Z,959.53
2022-12-22T01:46:51.857Z,959.56
2022-12-22T01:47:41.813Z,959.54
2022-12-22T01:48:31.815Z,959.56
2022-12-22T01:49:21.785Z,959.56
2022-12-22T01:50:11.767Z,959.53
2022-12-22T01:51:01.767Z,959.41
2022-12-22T01:51:51.754Z,959.51
2022-12-22T01:52:41.763Z,959.66
2022-12-22T01:53:31.752Z,959.61
2022-12-22T01:54:21.736Z,959.64
2022-12-22T01:55:11.722Z,959.57
2022-12-22T01:56:01.716Z,959.38
2022-12-22T01:56:51.693Z,959.53
2022-12-22T01:57:41.684Z,959.46
2022-12-22T01:58:31.684Z,959.41
2022-12-22T01:59:21.713Z,959.52
2022-12-22T02:00:11.679Z,959.54
2022-12-22T02:01:01.667Z,959.43
2022-12-22T02:01:51.751Z,959.44
2022-12-22T02:02:41.776Z,959.32
2022-12-22T02:03:31.664Z,959.41
2022-12-22T02:04:21.613Z,959.39
2022-12-22T02:05:11.596Z,959.36
2022-12-22T02:06:01.595Z,959.38
2022-12-22T02:06:57.935Z,959.37
2022-12-22T02:07:42.593Z,959.28
2022-12-22T02:08:31.576Z,959.28
2022-12-22T02:09:21.553Z,959.35
2022-12-22T02:10:11.545Z,959.17
2022-12-22T02:11:01.541Z,959.27
2022-12-22T02:11:51.521Z,959.39
2022-12-22T02:12:41.531Z,959.21
2022-12-22T02:13:31.540Z,959.26
2022-12-22T02:14:24.845Z,959.31
2022-12-22T02:15:12.493Z,959.28
2022-12-22T02:16:01.490Z,959.32
2022-12-22T02:16:51.470Z,959.40
2022-12-22T02:17:41.492Z,959.23
2022-12-22T02:18:31.469Z,959.23
2022-12-22T02:19:21.441Z,959.19
2022-12-22T02:20:11.435Z,959.25
2022-12-22T02:21:01.436Z,959.31
2022-12-22T02:21:51.412Z,959.32
2022-12-22T02:22:41.407Z,959.29
2022-12-22T02:23:31.419Z,959.17
2022-12-22T02:24:21.385Z,959.20
2022-12-22T02:25:11.370Z,959.13
2022-12-22T02:26:01.367Z,959.17
2022-12-22T02:26:51.375Z,959.11
2022-12-22T02:27:41.350Z,959.11
2022-12-22T02:28:31.380Z,959.19
2022-12-22T02:29:21.336Z,959.15
2022-12-22T02:30:11.321Z,959.07
2022-12-22T02:31:01.328Z,959.04
2022-12-22T02:31:51.348Z,959.06
2022-12-22T02:32:41.324Z,958.95
2022-12-22T02:33:31.313Z,959.01
2022-12-22T02:34:21.279Z,959.08
2022-12-22T02:35:11.271Z,958.96
2022-12-22T02:36:01.253Z,958.94
2022-12-22T02:36:51.250Z,959.12
2022-12-22T02:37:41.226Z,958.94
2022-12-22T02:38:31.245Z,958.97
2022-12-22T02:39:21.217Z,958.95
2022-12-22T02:40:11.208Z,959.04
2022-12-22T02:41:01.206Z,958.95
2022-12-22T02:41:51.186Z,958.94
2022-12-22T02:42:41.182Z,958.87
2022-12-22T02:43:31.182Z,958.76
2022-12-22T02:44:21.167Z,958.82
2022-12-22T02:45:11.169Z,958.82
2022-12-22T02:46:01.137Z,958.83
2022-12-22T02:46:51.182Z,958.91
2022-12-22T02:47:41.118Z,958.88
2022-12-22T02:48:31.125Z,958.86
2022-12-22T02:49:21.106Z,958.88
2022-12-22T02:50:11.100Z,958.93
2022-12-22T02:51:01.086Z,958.90
2022-12-22T02:51:51.085Z,958.81
2022-12-22T02:52:41.074Z,958.71
2022-12-22T02:53:31.076Z,958.89
2022-12-22T02:54:21.047Z,958.76
2022-12-22T02:55:11.044Z,958.65
2022-12-22T02:56:01.025Z,958.74
2022-12-22T02:56:51.024Z,958.83
2022-12-22T02:57:41.009Z,958.68
2022-12-22T02:58:31.031Z,958.64
2022-12-22T02:59:20.987Z,958.74
2022-12-22T03:00:10.986Z,958.72
2022-12-22T03:01:00.980Z,958.67
2022-12-22T03:01:51.105Z,958.56
2022-12-22T03:02:41.075Z,958.38
2022-12-22T03:03:31.222Z,958.55
2022-12-22T03:04:20.933Z,958.46
2022-12-22T03:05:10.925Z,958.55
2022-12-22T03:06:00.916Z,958.59
2022-12-22T03:06:50.910Z,958.41
2022-12-22T03:07:40.894Z,958.53
2022-12-22T03:08:30.911Z,958.58
2022-12-22T03:09:20.884Z,958.34
2022-12-22T03:10:10.874Z,958.33
2022-12-22T03:11:00.862Z,958.32
2022-12-22T03:11:50.877Z,958.32
2022-12-22T03:12:40.835Z,958.37
2022-12-22T03:13:30.843Z,958.26
2022-12-22T03:14:20.834Z,958.36
2022-12-22T03:15:10.825Z,958.26
2022-12-22T03:16:00.837Z,958.25
2022-12-22T03:16:50.810Z,958.23
2022-12-22T03:17:40.787Z,958.26
2022-12-22T03:18:30.789Z,958.16
2022-12-22T03:19:20.762Z,958.19
2022-12-22T03:20:10.753Z,958.17
2022-12-22T03:21:00.744Z,958.25
2022-12-22T03:21:50.748Z,958.24
2022-12-22T03:22:40.733Z,958.16
2022-12-22T03:23:30.755Z,958.07
2022-12-22T03:24:20.712Z,958.11
2022-12-22T03:25:10.702Z,958.09
2022-12-22T03:26:00.690Z,958.08
2022-12-22T03:26:50.683Z,958.11
2022-12-22T03:27:40.674Z,958.11
2022-12-22T03:28:30.686Z,958.11
2022-12-22T03:29:20.654Z,957.99
2022-12-22T03:30:10.654Z,958.00
2022-12-22T03:31:00.750Z,957.98
2022-12-22T03:31:50.678Z,958.04
2022-12-22T03:32:40.628Z,957.98
2022-12-22T03:33:30.656Z,958.00
2022-12-22T03:34:20.594Z,958.07
2022-12-22T03:35:10.593Z,958.03
2022-12-22T03:36:00.572Z,958.02
2022-12-22T03:36:50.570Z,957.92
2022-12-22T03:37:40.561Z,957.90
2022-12-22T03:38:30.560Z,958.12
2022-12-22T03:39:20.541Z,958.04
2022-12-22T03:40:10.531Z,957.97
2022-12-22T03:41:00.520Z,957.85
2022-12-22T03:41:50.529Z,957.92
2022-12-22T03:42:40.501Z,957.88
2022-12-22T03:43:30.511Z,957.92
2022-12-22T03:44:20.480Z,957.90
2022-12-22T03:45:10.482Z,957.82
2022-12-22T03:46:00.460Z,957.91
2022-12-22T03:46:50.530Z,957.90
2022-12-22T03:47:40.439Z,957.86
2022-12-22T03:48:30.451Z,957.86
2022-12-22T03:49:20.428Z,957.87
2022-12-22T03:50:10.420Z,957.88
2022-12-22T03:51:00.424Z,958.05
2022-12-22T03:51:50.399Z,958.00
2022-12-22T03:52:40.398Z,958.04
2022-12-22T03:53:30.399Z,957.99
2022-12-22T03:54:20.372Z,957.95
2022-12-22T03:55:10.370Z,958.03
2022-12-22T03:56:07.342Z,958.05
2022-12-22T03:56:51.351Z,958.13
2022-12-22T03:57:40.328Z,958.06
2022-12-22T03:58:30.341Z,957.97
2022-12-22T03:59:20.321Z,957.94
2022-12-22T04:00:10.309Z,957.87
2022-12-22T04:01:00.359Z,957.98
2022-12-22T04:01:50.502Z,957.97
2022-12-22T04:02:40.348Z,957.95
2022-12-22T04:03:30.410Z,958.05
2022-12-22T04:04:20.258Z,957.97
2022-12-22T04:05:10.261Z,958.02
2022-12-22T04:06:00.273Z,958.00
2022-12-22T04:06:50.242Z,958.12
2022-12-22T04:07:40.224Z,958.03
2022-12-22T04:08:30.229Z,958.04
2022-12-22T04:09:20.208Z,958.01
2022-12-22T04:10:10.205Z,958.07
2022-12-22T04:11:00.176Z,958.07
2022-12-22T04:11:50.176Z,958.11
2022-12-22T04:12:40.166Z,957.92
2022-12-22T04:13:30.175Z,957.88
2022-12-22T04:14:20.147Z,957.91
2022-12-22T04:15:10.146Z,958.10
2022-12-22T04:16:00.174Z,957.93
2022-12-22T04:16:50.185Z,957.95
2022-12-22T04:17:40.114Z,957.99
2022-12-22T04:18:30.119Z,957.99
2022-12-22T04:19:20.086Z,957.95
2022-12-22T04:20:10.087Z,957.88
2022-12-22T04:21:00.091Z,957.99
2022-12-22T04:21:50.068Z,958.03
2022-12-22T04:22:40.061Z,957.99
2022-12-22T04:23:30.059Z,958.13
2022-12-22T04:24:20.034Z,957.93
2022-12-22T04:25:10.046Z,958.06
2022-12-22T04:26:00.026Z,958.04
2022-12-22T04:26:50.026Z,958.01
2022-12-22T04:27:39.997Z,957.98
2022-12-22T04:28:30.057Z,958.05
2022-12-22T04:29:19.972Z,957.88
2022-12-22T04:30:09.974Z,958.07
2022-12-22T04:30:59.964Z,958.01
2022-12-22T04:31:50.033Z,958.01
2022-12-22T04:32:39.973Z,958.01
2022-12-22T04:33:29.959Z,958.06
2022-12-22T04:34:19.928Z,958.00
2022-12-22T04:35:09.919Z,957.98
2022-12-22T04:35:59.903Z,958.12
2022-12-22T04:36:49.903Z,958.04
2022-12-22T04:37:39.889Z,958.02
2022-12-22T04:38:29.893Z,957.86
2022-12-22T04:39:19.864Z,957.92
2022-12-22T04:40:09.856Z,958.05
2022-12-22T04:40:59.851Z,958.08
2022-12-22T04:41:49.845Z,958.08
2022-12-22T04:42:39.845Z,958.01
2022-12-22T04:43:29.839Z,957.98
2022-12-22T04:44:19.820Z,958.12
2022-12-22T04:45:09.804Z,957.96
2022-12-22T04:45:59.848Z,957.96
2022-12-22T04:46:49.792Z,958.13
2022-12-22T04:47:39.773Z,958.06
2022-12-22T04:48:29.782Z,957.92
2022-12-22T04:49:19.755Z,958.02
2022-12-22T04:50:09.749Z,958.10
2022-12-22T04:50:59.740Z,957.99
2022-12-22T04:51:49.727Z,958.00
2022-12-22T04:52:39.713Z,958.06
2022-12-22T04:53:29.725Z,958.01
2022-12-22T04:54:19.703Z,958.03
2022-12-22T04:55:09.697Z,957.93
2022-12-22T04:55:59.693Z,957.97
2022-12-22T04:56:49.662Z,957.97
2022-12-22T04:57:41.124Z,957.91
2022-12-22T04:58:29.663Z,957.85
2022-12-22T04:59:19.630Z,957.89
2022-12-22T05:00:09.644Z,957.89
2022-12-22T05:00:59.689Z,957.95
2022-12-22T05:01:49.718Z,957.89
2022-12-22T05:02:39.736Z,957.77
2022-12-22T05:03:29.666Z,957.93
2022-12-22T05:04:23.654Z,957.91
2022-12-22T05:05:09.594Z,957.84
2022-12-22T05:05:59.560Z,957.99
2022-12-22T05:06:49.559Z,957.91
2022-12-22T05:07:39.549Z,957.83
2022-12-22T05:08:29.568Z,957.87
2022-12-22T05:09:19.530Z,957.94
2022-12-22T05:10:09.524Z,957.98
2022-12-22T05:10:59.512Z,957.87
2022-12-22T05:11:49.509Z,957.83
2022-12-22T05:12:39.498Z,957.87
2022-12-22T05:13:29.508Z,957.83
2022-12-22T05:14:19.471Z,957.92
2022-12-22T05:15:09.468Z,957.91
2022-12-22T05:15:59.450Z,958.00
2022-12-22T05:16:49.566Z,957.86
2022-12-22T05:17:39.431Z,957.75
2022-12-22T05:18:29.446Z,957.85
2022-12-22T05:19:19.421Z,957.73
2022-12-22T05:20:09.457Z,957.93
2022-12-22T05:20:59.398Z,957.93
2022-12-22T05:21:49.390Z,957.84
2022-12-22T05:22:39.383Z,957.81
2022-12-22T05:23:29.391Z,957.90
2022-12-22T05:24:19.358Z,957.87
2022-12-22T05:25:09.361Z,957.98
2022-12-22T05:25:59.341Z,957.84
2022-12-22T05:26:49.337Z,957.76
2022-12-22T05:27:39.324Z,957.88
2022-12-22T05:28:29.337Z,957.81
2022-12-22T05:29:19.303Z,957.74
2022-12-22T05:30:09.300Z,957.79
2022-12-22T05:30:59.335Z,957.69
2022-12-22T05:31:49.282Z,957.77
2022-12-22T05:32:39.272Z,957.83
2022-12-22T05:33:29.303Z,957.76
2022-12-22T05:34:19.250Z,957.61
2022-12-22T05:35:09.235Z,957.59
2022-12-22T05:35:59.235Z,957.67
2022-12-22T05:36:49.233Z,957.68
2022-12-22T05:37:39.214Z,957.63
2022-12-22T05:38:29.232Z,957.72
2022-12-22T05:39:19.187Z,957.74
2022-12-22T05:40:09.189Z,957.75
2022-12-22T05:41:04.019Z,957.73
2022-12-22T05:41:50.170Z,957.82
2022-12-22T05:42:39.153Z,957.97
2022-12-22T05:43:29.174Z,957.71
2022-12-22T05:44:19.139Z,957.77
2022-12-22T05:45:09.127Z,957.82
2022-12-22T05:45:59.171Z,957.85
2022-12-22T05:46:49.116Z,957.91
2022-12-22T05:47:39.096Z,958.05
2022-12-22T05:48:35.323Z,957.98
2022-12-22T05:49:20.076Z,958.05
2022-12-22T05:50:09.072Z,957.98
2022-12-22T05:50:59.061Z,958.21
2022-12-22T05:51:49.055Z,957.66
2022-12-22T05:52:39.051Z,958.11
2022-12-22T05:53:29.057Z,957.86
2022-12-22T05:54:19.030Z,958.02
2022-12-22T05:55:09.015Z,958.00
2022-12-22T05:55:59.003Z,957.91
2022-12-22T05:56:49.007Z,957.95
2022-12-22T05:57:38.984Z,957.96
2022-12-22T05:58:29.031Z,958.07
2022-12-22T05:59:18.970Z,957.94
2022-12-22T06:00:08.957Z,957.79
2022-12-22T06:00:58.960Z,957.95
2022-12-22T06:01:48.993Z,958.15
2022-12-22T06:02:39.014Z,957.91
2022-12-22T06:03:29.370Z,957.88
2022-12-22T06:04:19.109Z,957.90
2022-12-22T06:05:08.904Z,958.06
2022-12-22T06:05:58.890Z,957.89
2022-12-22T06:06:48.889Z,957.96
2022-12-22T06:07:38.873Z,958.02
2022-12-22T06:08:28.867Z,957.87
2022-12-22T06:09:18.880Z,957.77
2022-12-22T06:10:12.323Z,957.84
2022-12-22T06:10:58.860Z,957.83
2022-12-22T06:11:48.823Z,957.88
2022-12-22T06:12:38.825Z,957.74
2022-12-22T06:13:28.833Z,957.78
2022-12-22T06:14:18.814Z,957.65
2022-12-22T06:15:08.791Z,957.78
2022-12-22T06:15:58.834Z,957.89
2022-12-22T06:16:48.773Z,957.80
2022-12-22T06:17:44.425Z,957.77
2022-12-22T06:18:29.767Z,957.77
2022-12-22T06:19:18.759Z,957.90
2022-12-22T06:20:08.739Z,957.83
2022-12-22T06:20:58.722Z,957.76
2022-12-22T06:21:48.711Z,957.63
2022-12-22T06:22:38.712Z,957.90
2022-12-22T06:23:28.720Z,958.01
2022-12-22T06:24:18.691Z,957.88
2022-12-22T06:25:12.141Z,957.94
2022-12-22T06:25:59.677Z,957.82
2022-12-22T06:26:48.663Z,957.89
2022-12-22T06:27:38.653Z,957.62
2022-12-22T06:28:28.649Z,957.89
2022-12-22T06:29:18.643Z,958.18
2022-12-22T06:30:08.623Z,958.30
2022-12-22T06:30:58.679Z,958.16
2022-12-22T06:31:48.671Z,958.17
2022-12-22T06:32:38.599Z,958.44
2022-12-22T06:33:28.586Z,958.26
2022-12-22T06:34:18.623Z,958.10
2022-12-22T06:35:08.560Z,958.02
2022-12-22T06:35:59.651Z,958.14
2022-12-22T06:36:48.562Z,958.20
2022-12-22T06:37:38.542Z,958.07
2022-12-22T06:38:28.737Z,958.14
2022-12-22T06:39:18.546Z,957.97
2022-12-22T06:40:08.512Z,958.07
2022-12-22T06:40:58.501Z,958.00
2022-12-22T06:41:48.498Z,958.09
2022-12-22T06:42:38.492Z,958.20
2022-12-22T06:43:28.480Z,958.01
2022-12-22T06:44:18.515Z,958.02
2022-12-22T06:45:08.462Z,958.04
2022-12-22T06:45:58.506Z,958.23
2022-12-22T06:46:48.515Z,958.23
2022-12-22T06:47:38.438Z,958.01
2022-12-22T06:48:28.416Z,958.09
2022-12-22T06:49:18.419Z,958.11
2022-12-22T06:50:08.426Z,958.10
2022-12-22T06:50:58.393Z,957.95
2022-12-22T06:51:48.380Z,958.03
2022-12-22T06:52:38.379Z,958.01
2022-12-22T06:53:28.411Z,958.06
2022-12-22T06:54:22.322Z,958.00
2022-12-22T06:55:09.355Z,957.93
2022-12-22T06:55:58.347Z,957.94
2022-12-22T06:56:48.318Z,957.93
2022-12-22T06:57:38.317Z,957.90
2022-12-22T06:58:28.304Z,957.90
2022-12-22T06:59:18.320Z,958.00
2022-12-22T07:00:08.301Z,957.98
2022-12-22T07:00:58.277Z,957.94
2022-12-22T07:01:48.379Z,957.91
2022-12-22T07:02:38.502Z,957.92
2022-12-22T07:03:28.418Z,957.92
2022-12-22T07:04:18.255Z,958.00
2022-12-22T07:05:08.241Z,957.97
2022-12-22T07:05:58.227Z,958.14
2022-12-22T07:06:48.217Z,958.00
2022-12-22T07:07:38.202Z,958.12
2022-12-22T07:08:28.185Z,958.03
2022-12-22T07:09:18.205Z,958.05
2022-12-22T07:10:08.169Z,958.14
2022-12-22T07:10:58.181Z,958.14
2022-12-22T07:11:48.155Z,958.23
2022-12-22T07:12:38.157Z,958.14
2022-12-22T07:13:28.133Z,958.34
2022-12-22T07:14:18.145Z,958.26
2022-12-22T07:15:08.117Z,958.36
2022-12-22T07:16:05.198Z,957.89
2022-12-22T07:16:48.191Z,958.19
2022-12-22T07:17:38.083Z,958.04
2022-12-22T07:18:28.071Z,958.29
2022-12-22T07:19:18.089Z,958.34
2022-12-22T07:20:08.062Z,958.04
2022-12-22T07:20:58.048Z,958.24
2022-12-22T07:21:48.054Z,958.32
2022-12-22T07:22:38.031Z,958.33
2022-12-22T07:23:28.028Z,958.20
2022-12-22T07:24:18.033Z,958.25
2022-12-22T07:25:08.009Z,958.26
2022-12-22T07:25:58.002Z,958.13
2022-12-22T07:26:47.981Z,958.39
2022-12-22T07:27:37.979Z,958.38
2022-12-22T07:28:27.968Z,958.23
2022-12-22T07:29:17.973Z,958.38
2022-12-22T07:30:07.952Z,958.43
2022-12-22T07:30:58.059Z,958.48
2022-12-22T07:31:47.997Z,958.45
2022-12-22T07:32:37.919Z,958.35
2022-12-22T07:33:27.921Z,958.54
2022-12-22T07:34:17.981Z,958.51
2022-12-22T07:35:07.901Z,958.62
2022-12-22T07:35:57.889Z,958.61
2022-12-22T07:36:47.870Z,958.65
2022-12-22T07:37:37.871Z,958.78
2022-12-22T07:38:27.871Z,958.85
2022-12-22T07:39:17.872Z,958.83
2022-12-22T07:40:07.836Z,958.80
2022-12-22T07:41:02.923Z,958.84
2022-12-22T07:41:48.818Z,958.84
2022-12-22T07:42:37.822Z,958.82
2022-12-22T07:43:27.800Z,958.91
2022-12-22T07:44:17.819Z,959.11
2022-12-22T07:45:07.779Z,959.17
2022-12-22T07:45:57.779Z,958.81
2022-12-22T07:46:47.774Z,958.99
2022-12-22T07:47:37.757Z,959.15
2022-12-22T07:48:27.754Z,958.97
2022-12-22T07:49:17.761Z,958.98
2022-12-22T07:50:07.728Z,958.96
2022-12-22T07:50:57.717Z,959.01
2022-12-22T07:51:47.701Z,958.89
2022-12-22T07:52:37.706Z,958.92
2022-12-22T07:53:27.693Z,958.87
2022-12-22T07:54:17.718Z,958.87
2022-12-22T07:55:07.667Z,958.92
2022-12-22T07:55:57.659Z,958.78
2022-12-22T07:56:47.651Z,958.76
2022-12-22T07:57:37.636Z,958.86
2022-12-22T07:58:27.627Z,958.83
2022-12-22T07:59:17.638Z,958.86
2022-12-22T08:00:07.621Z,958.95
2022-12-22T08:00:57.606Z,959.04
2022-12-22T08:01:47.706Z,958.96
2022-12-22T08:02:39.374Z,958.94
2022-12-22T08:03:27.665Z,958.82
2022-12-22T08:04:17.625Z,958.90
2022-12-22T08:05:07.625Z,958.99
2022-12-22T08:05:57.572Z,959.03
2022-12-22T08:06:47.545Z,958.92
2022-12-22T08:07:37.534Z,959.09
2022-12-22T08:08:27.540Z,958.96
2022-12-22T08:09:17.525Z,958.94
2022-12-22T08:10:07.495Z,959.00
2022-12-22T08:10:57.505Z,958.99
2022-12-22T08:11:47.474Z,959.22
2022-12-22T08:12:37.501Z,959.11
2022-12-22T08:13:27.543Z,959.01
2022-12-22T08:14:17.477Z,958.86
2022-12-22T08:15:07.436Z,958.94
2022-12-22T08:15:57.445Z,958.83
2022-12-22T08:16:47.554Z,958.92
2022-12-22T08:17:37.427Z,958.92
2022-12-22T08:18:27.410Z,959.01
2022-12-22T08:19:17.417Z,959.08
2022-12-22T08:20:07.415Z,958.99
2022-12-22T08:20:57.381Z,958.89
2022-12-22T08:21:52.611Z,959.04
2022-12-22T08:22:38.383Z,959.04
2022-12-22T08:23:28.792Z,958.93
2022-12-22T08:24:17.373Z,959.05
2022-12-22T08:25:07.323Z,958.92
2022-12-22T08:25:57.332Z,959.02
2022-12-22T08:26:47.304Z,958.97
2022-12-22T08:27:37.307Z,959.05
2022-12-22T08:28:27.293Z,958.96
2022-12-22T08:29:17.306Z,958.98
2022-12-22T08:30:07.290Z,959.02
2022-12-22T08:30:57.268Z,958.97
2022-12-22T08:31:47.327Z,959.02
2022-12-22T08:32:37.256Z,959.00
2022-12-22T08:33:27.243Z,958.99
2022-12-22T08:34:17.255Z,958.84
2022-12-22T08:35:07.214Z,958.89
2022-12-22T08:36:01.225Z,959.01
2022-12-22T08:36:48.191Z,958.88
2022-12-22T08:37:37.193Z,958.80
2022-12-22T08:38:27.184Z,958.83
2022-12-22T08:39:17.188Z,958.81
2022-12-22T08:40:07.165Z,958.77
2022-12-22T08:40:57.154Z,958.82
2022-12-22T08:41:47.150Z,958.85
2022-12-22T08:42:37.133Z,958.76
2022-12-22T08:43:27.127Z,958.83
2022-12-22T08:44:17.147Z,958.94
2022-12-22T08:45:07.101Z,958.71
2022-12-22T08:45:57.103Z,958.79
2022-12-22T08:46:47.106Z,958.79
2022-12-22T08:47:37.141Z,958.78
2022-12-22T08:48:27.070Z,958.70
2022-12-22T08:49:17.071Z,958.71
2022-12-22T08:50:07.040Z,958.67
2022-12-22T08:50:57.062Z,958.52
2022-12-22T08:51:47.031Z,958.45
2022-12-22T08:52:37.023Z,958.47
2022-12-22T08:54:02.423Z,958.68
2022-12-22T08:54:18.020Z,958.76
2022-12-22T08:55:06.993Z,958.77
2022-12-22T08:55:56.987Z,958.74
2022-12-22T08:56:46.984Z,958.67
2022-12-22T08:57:36.974Z,958.74
2022-12-22T08:58:26.963Z,958.68
2022-12-22T08:59:16.987Z,958.78
2022-12-22T09:00:06.940Z,958.77
2022-12-22T09:00:57.058Z,958.62
2022-12-22T09:01:47.041Z,958.62
2022-12-22T09:02:37.138Z,958.78
2022-12-22T09:03:26.957Z,958.76
2022-12-22T09:04:16.911Z,958.52
2022-12-22T09:05:06.896Z,958.55
2022-12-22T09:05:56.886Z,958.73
2022-12-22T09:06:46.861Z,958.63
2022-12-22T09:07:36.867Z,958.86
2022-12-22T09:08:26.840Z,958.81
2022-12-22T09:09:16.871Z,958.88
2022-12-22T09:10:06.829Z,958.81
2022-12-22T09:10:56.863Z,958.76
2022-12-22T09:11:46.817Z,958.87
2022-12-22T09:12:36.797Z,958.94
2022-12-22T09:13:26.787Z,958.99
2022-12-22T09:14:16.800Z,958.94
2022-12-22T09:15:06.767Z,959.12
2022-12-22T09:15:56.805Z,959.16
2022-12-22T09:16:46.797Z,959.29
2022-12-22T09:17:36.738Z,959.28
2022-12-22T09:18:26.759Z,959.26
2022-12-22T09:19:16.739Z,959.32
2022-12-22T09:20:06.718Z,959.37
2022-12-22T09:20:56.706Z,959.51
2022-12-22T09:21:46.687Z,959.26
2022-12-22T09:22:36.682Z,959.44
2022-12-22T09:23:26.692Z,959.28
2022-12-22T09:24:16.709Z,959.32
2022-12-22T09:25:06.659Z,959.30
2022-12-22T09:25:56.654Z,959.34
2022-12-22T09:26:46.633Z,959.31
2022-12-22T09:27:36.625Z,959.47
2022-12-22T09:28:26.621Z,959.29
2022-12-22T09:29:16.636Z,959.34
2022-12-22T09:30:06.602Z,959.37
2022-12-22T09:30:56.596Z,959.32
2022-12-22T09:31:46.623Z,959.26
2022-12-22T09:32:36.565Z,959.31
2022-12-22T09:33:26.575Z,959.43
2022-12-22T09:34:23.556Z,959.25
2022-12-22T09:35:06.533Z,959.35
2022-12-22T09:35:56.537Z,959.30
2022-12-22T09:36:46.519Z,959.43
2022-12-22T09:37:36.511Z,959.36
2022-12-22T09:38:26.513Z,959.30
2022-12-22T09:39:16.530Z,959.32
2022-12-22T09:40:06.499Z,959.39
2022-12-22T09:40:56.478Z,959.26
2022-12-22T09:41:46.473Z,959.32
2022-12-22T09:42:36.468Z,959.33
2022-12-22T09:43:26.457Z,959.17
2022-12-22T09:44:16.457Z,959.34
2022-12-22T09:45:06.442Z,959.41
2022-12-22T09:45:56.479Z,959.42
2022-12-22T09:46:46.420Z,959.25
2022-12-22T09:47:36.414Z,959.14
2022-12-22T09:48:26.391Z,959.28
2022-12-22T09:49:16.402Z,959.34
2022-12-22T09:50:06.383Z,959.30
2022-12-22T09:50:56.365Z,959.22
2022-12-22T09:51:46.373Z,959.25
2022-12-22T09:52:36.366Z,959.29
2022-12-22T09:53:26.349Z,959.27
2022-12-22T09:54:16.353Z,959.29
2022-12-22T09:55:06.326Z,959.34
2022-12-22T09:55:56.300Z,959.31
2022-12-22T09:56:46.306Z,959.21
2022-12-22T09:57:36.280Z,959.17
2022-12-22T09:58:26.911Z,959.18
2022-12-22T09:59:16.289Z,959.09
2022-12-22T10:00:06.284Z,959.24
2022-12-22T10:00:56.305Z,959.24
2022-12-22T10:01:46.307Z,959.40
2022-12-22T10:02:36.369Z,959.44
2022-12-22T10:03:26.294Z,959.51
2022-12-22T10:04:16.234Z,959.41
2022-12-22T10:05:06.198Z,959.30
2022-12-22T10:05:56.203Z,959.35
2022-12-22T10:06:46.191Z,959.25
2022-12-22T10:07:36.170Z,959.10
2022-12-22T10:08:26.168Z,959.25
2022-12-22T10:09:46.035Z,959.38
2022-12-22T10:10:07.147Z,959.42
2022-12-22T10:10:56.146Z,959.40
2022-12-22T10:11:46.134Z,959.46
2022-12-22T10:12:36.161Z,959.28
2022-12-22T10:13:26.114Z,959.41
2022-12-22T10:14:16.119Z,959.64
2022-12-22T10:15:06.087Z,959.37
2022-12-22T10:15:56.088Z,959.32
2022-12-22T10:16:46.179Z,959.36
2022-12-22T10:17:36.057Z,959.32
2022-12-22T10:18:26.059Z,959.38
2022-12-22T10:19:16.063Z,959.44
2022-12-22T10:20:06.037Z,959.37
2022-12-22T10:20:56.037Z,959.45
2022-12-22T10:21:47.171Z,959.50
2022-12-22T10:22:36.021Z,959.35
2022-12-22T10:23:26.001Z,959.27